Industrial, Mississippi
Current Conditions -  °F | °C
As of 4:53 PM on Friday 28 Nov 2014 (Local Time) from KASD Reporting Station
Clear Clear  
Wind Chill: 52°   Ceiling: Unl
Heat Index: 52°   Visibility: 10mi
Dew Point: 39°   Wind: 5mph
Humidity: 61%   Direction: 160°SSE
Pressure: 30.3"   Gusts: NA
Location:  30.5854°N, 89.6932°W
Report Text: KASD 282253Z AUTO 16004KT 10SM CLR 11/04 A3030 RMK AO2 SLP260 T01110039
Loading
Personal Weather Stations






























Interactive Weather Map New forecast layout! Learn more

10-Day Weather Forecast

Advertisements
Track Severe Weather on mobile